YMHBYPAD

Guest
Details From YMHB - Hobart
To YPAD - Adelaide Intl
Flight Number -
Tags Generated
Created
Modified
Stats Distance 632 nm / 1,170 km
Max Altitude 0 ft / 0 m
Waypoints 3
Social Downloads 1
Likes 0
Share VATSIM

Download

Looking for another format? Having issues loading an existing format? Contact us
Advertisement - Login to hide

Notes

Generated

Route

YMHB MEDOW YPAD

ID Type Via Altitude Latitude Longitude Leg Dist Tot Dist Heading (true) Name
O YMHB APT - 0 ft / 0 m -42.82898˚ 147.50206˚ - 0 nm - -
MEDOW FIX - 0 ft / 0 m -35.15641˚ 138.75509˚ 614 nm 614 nm 316° / 321° -
O YPAD APT - 0 ft / 0 m -34.94168˚ 138.54233˚ 16 nm 631 nm 321° / 321° -

Altitude Profile

Advertisement - Login to hide

Weather


0- 5 10 15 20 25 30 35+ Temperature / ° C

Clouds and Precipitation
Forecast for 2017-12-12 06:00 UTC. Updated 8 minutes ago

Ground ~20,000 ft ~40,000 ft Winds

YMHB

Details ICAO YMHB (HBA)
Name Hobart
Region Australia
Timezone Australia/Hobart (UTC+11.0)
Stats Elevation 12 ft / 4 m (AMSL)
Location -42.836167° 147.511798°
Runways 1
Magnetic Variation 15.098° E

METAR

YMHB 120300Z 14011KT 9999 FEW050 BKN250 23/12 Q1014 RF00.0/000.0

Decode

TAF

TAF AMD TAF AMD YMHB 112356Z 1200/1224 14015KT CAVOK FM121000 08010KT 9999 SCT010 FM121200 04008KT 9999 SCT010 BKN020 FM121500 34008KT 9999 BKN010 FM122100 34012KT 9999 FEW020

Decode

Departure Runways

ID Width Length Bearing (true) Bearing (mag) Surface Threshold Offset Overrun Length
12 148 ft / 45 m 7,379 ft / 2,249 m 135.11° 120.01° Asphalt 0 ft / 0 m 0 ft / 0 m
30 148 ft / 45 m 7,379 ft / 2,249 m 315.09° 299.99° Asphalt 0 ft / 0 m 0 ft / 0 m

YPAD

Details ICAO YPAD (ADL)
Name Adelaide Intl
Region Australia
Timezone Australia/Adelaide (UTC+10.5)
Stats Elevation 20 ft / 6 m (AMSL)
Location -34.947439° 138.529850°
Runways 2
Magnetic Variation 7.927° E

METAR

YPAD 120300Z 27006KT 240V330 CAVOK 33/06 Q1012 FM0330 24010KT CAVOK

Decode

TAF

TAF YPAD 112313Z 1200/1306 36008KT CAVOK FM120200 24010KT CAVOK FM121100 04012KT CAVOK FM122300 36014KT CAVOK FM130200 23012KT CAVOK

Decode

Destination Runways

ID Width Length Bearing (true) Bearing (mag) Surface Threshold Offset Overrun Length
05 151 ft / 46 m 10,173 ft / 3,101 m 50.14° 42.21° Asphalt 518 ft / 158 m 0 ft / 0 m
12 151 ft / 46 m 5,414 ft / 1,650 m 123.61° 115.68° Asphalt 0 ft / 0 m 0 ft / 0 m
23 151 ft / 46 m 10,173 ft / 3,101 m 230.13° 222.20° Asphalt 0 ft / 0 m 203 ft / 62 m
30 151 ft / 46 m 5,414 ft / 1,650 m 303.60° 295.67° Asphalt 0 ft / 0 m 0 ft / 0 m

Approach Navaids

Runway Type Ident Frequency Range Bearing (true) Bearing (mag) Slope Elevation
23 Localiser IAD 109.70 MHz 18 nm / 33 km 230.13° 222.20° - 20 ft / 6 m (AMSL)
23 Glidescope IAD 109.70 MHz 10 nm / 19 km 230.13° 222.21° 3.00° 20 ft / 6 m (AMSL)

Popular Alternatives